createdAt,value
2022-08-07T00:01:43.982Z,13.20
2022-08-07T00:04:09.222Z,13.20
2022-08-07T00:06:40.950Z,13.10
2022-08-07T00:09:21.382Z,13.10
2022-08-07T00:11:56.106Z,13.10
2022-08-07T00:14:30.137Z,13.10
2022-08-07T00:17:02.774Z,13.10
2022-08-07T00:20:02.614Z,13.00
2022-08-07T00:22:35.162Z,13.00
2022-08-07T00:25:15.824Z,12.90
2022-08-07T00:27:53.669Z,12.90
2022-08-07T00:30:27.382Z,12.90
2022-08-07T00:33:00.414Z,12.90
2022-08-07T00:35:30.079Z,12.90
2022-08-07T00:38:01.092Z,12.90
2022-08-07T00:40:36.415Z,12.90
2022-08-07T00:43:09.953Z,12.80
2022-08-07T00:45:40.443Z,12.90
2022-08-07T00:48:10.934Z,12.80
2022-08-07T00:50:50.347Z,12.80
2022-08-07T00:53:20.068Z,12.80
2022-08-07T00:56:00.463Z,12.80
2022-08-07T00:58:31.594Z,12.70
2022-08-07T01:00:59.276Z,12.70
2022-08-07T01:03:56.827Z,12.70
2022-08-07T01:06:14.082Z,12.70
2022-08-07T01:08:51.307Z,12.70
2022-08-07T01:12:24.052Z,12.70
2022-08-07T01:14:09.196Z,12.70
2022-08-07T01:16:36.903Z,12.70
2022-08-07T01:19:18.230Z,12.70
2022-08-07T01:21:53.021Z,12.70
2022-08-07T01:24:22.860Z,12.60
2022-08-07T01:26:52.690Z,12.70
2022-08-07T01:29:27.915Z,12.70
2022-08-07T01:31:59.416Z,12.60
2022-08-07T01:34:31.930Z,12.60
2022-08-07T01:37:03.845Z,12.60
2022-08-07T01:39:40.482Z,12.50
2022-08-07T01:42:37.936Z,12.50
2022-08-07T01:45:17.747Z,12.50
2022-08-07T01:48:20.560Z,12.40
2022-08-07T01:50:40.348Z,12.40
2022-08-07T01:53:20.795Z,12.40
2022-08-07T01:55:56.919Z,12.40
2022-08-07T01:58:33.433Z,12.40
2022-08-07T02:01:10.319Z,12.40
2022-08-07T02:04:14.697Z,12.40
2022-08-07T02:06:46.862Z,12.40
2022-08-07T02:09:33.494Z,12.30
2022-08-07T02:12:17.960Z,12.30
2022-08-07T02:14:56.017Z,12.30
2022-08-07T02:17:34.408Z,12.20
2022-08-07T02:20:16.922Z,12.20
2022-08-07T02:22:47.269Z,12.20
2022-08-07T02:26:10.030Z,12.10
2022-08-07T02:28:12.927Z,12.20
2022-08-07T02:30:42.721Z,12.20
2022-08-07T02:33:11.617Z,12.20
2022-08-07T02:36:28.206Z,12.20
2022-08-07T02:38:35.762Z,12.20
2022-08-07T02:41:05.848Z,12.10
2022-08-07T02:43:38.951Z,12.10
2022-08-07T02:46:09.249Z,12.10
2022-08-07T02:48:38.961Z,12.10
2022-08-07T02:51:41.907Z,12.10
2022-08-07T02:54:10.233Z,12.10
2022-08-07T02:56:44.519Z,12.10
2022-08-07T02:59:23.888Z,12.10
2022-08-07T03:01:57.924Z,12.10
2022-08-07T03:04:31.056Z,12.10
2022-08-07T03:07:03.449Z,12.10
2022-08-07T03:09:43.345Z,12.00
2022-08-07T03:12:21.981Z,12.00
2022-08-07T03:14:56.364Z,12.00
2022-08-07T03:17:24.454Z,11.90
2022-08-07T03:19:55.519Z,11.90
2022-08-07T03:22:29.589Z,11.90
2022-08-07T03:24:59.980Z,11.90
2022-08-07T03:27:59.745Z,11.90
2022-08-07T03:30:18.397Z,11.90
2022-08-07T03:32:58.882Z,11.90
2022-08-07T03:35:43.524Z,11.90
2022-08-07T03:38:21.319Z,11.80
2022-08-07T03:41:00.550Z,11.80
2022-08-07T03:43:32.481Z,11.80
2022-08-07T03:46:03.982Z,11.80
2022-08-07T03:48:45.511Z,11.80
2022-08-07T03:51:30.913Z,11.80
2022-08-07T03:54:35.656Z,11.80
2022-08-07T03:57:07.459Z,11.80
2022-08-07T03:59:36.521Z,11.80
2022-08-07T04:02:14.898Z,11.80
2022-08-07T04:04:43.067Z,11.80
2022-08-07T04:07:16.673Z,11.70
2022-08-07T04:10:02.888Z,11.80
2022-08-07T04:12:31.420Z,11.80
2022-08-07T04:15:00.894Z,11.80
2022-08-07T04:18:11.253Z,11.80
2022-08-07T04:20:22.567Z,11.80
2022-08-07T04:23:01.993Z,11.80
2022-08-07T04:25:40.901Z,11.80
2022-08-07T04:28:13.641Z,11.80
2022-08-07T04:30:55.196Z,11.80
2022-08-07T04:33:29.142Z,11.80
2022-08-07T04:35:58.171Z,11.80
2022-08-07T04:38:28.714Z,11.80
2022-08-07T04:40:57.360Z,11.80
2022-08-07T04:44:12.689Z,11.90
2022-08-07T04:47:04.216Z,11.90
2022-08-07T04:49:29.682Z,11.90
2022-08-07T04:52:33.368Z,11.90
2022-08-07T04:58:15.551Z,11.90
2022-08-07T04:59:18.196Z,12.00
2022-08-07T05:02:02.153Z,12.00
2022-08-07T05:04:47.245Z,12.00
2022-08-07T05:07:48.083Z,12.00
2022-08-07T05:10:38.786Z,12.10
2022-08-07T05:14:55.370Z,12.10
2022-08-07T05:16:10.383Z,12.10
2022-08-07T05:18:48.919Z,12.20
2022-08-07T05:22:00.666Z,12.20
2022-08-07T05:24:12.005Z,12.20
2022-08-07T05:26:41.148Z,12.30
2022-08-07T05:29:16.624Z,12.30
2022-08-07T05:31:52.838Z,12.40
2022-08-07T05:34:27.662Z,12.50
2022-08-07T05:36:57.005Z,12.60
2022-08-07T05:40:13.978Z,12.60
2022-08-07T05:42:34.261Z,12.70
2022-08-07T05:45:26.401Z,12.80
2022-08-07T05:48:01.406Z,12.90
2022-08-07T05:50:34.209Z,13.00
2022-08-07T05:53:03.165Z,13.00
2022-08-07T05:56:03.332Z,13.10
2022-08-07T05:58:36.071Z,13.20
2022-08-07T06:01:08.490Z,13.20
2022-08-07T06:03:57.233Z,13.30
2022-08-07T06:06:29.445Z,13.40
2022-08-07T06:08:57.690Z,13.50
2022-08-07T06:11:26.673Z,13.50
2022-08-07T06:14:13.255Z,13.60
2022-08-07T06:16:50.655Z,13.70
2022-08-07T06:19:47.796Z,13.80
2022-08-07T06:22:23.313Z,13.80
2022-08-07T06:25:01.782Z,13.90
2022-08-07T06:27:59.834Z,13.90
2022-08-07T06:30:31.876Z,14.00
2022-08-07T06:33:15.832Z,14.00
2022-08-07T06:35:47.610Z,14.10
2022-08-07T06:38:20.279Z,14.20
2022-08-07T06:40:51.940Z,14.20
2022-08-07T06:43:23.642Z,14.30
2022-08-07T06:46:06.577Z,14.30
2022-08-07T06:48:41.784Z,14.40
2022-08-07T06:51:31.123Z,14.40
2022-08-07T06:55:28.227Z,14.50
2022-08-07T06:56:54.057Z,14.50
2022-08-07T07:00:12.662Z,14.60
2022-08-07T07:02:54.591Z,14.70
2022-08-07T07:05:14.336Z,14.70
2022-08-07T07:08:07.316Z,14.80
2022-08-07T07:10:38.608Z,14.80
2022-08-07T07:13:56.374Z,14.90
2022-08-07T07:16:19.754Z,14.90
2022-08-07T07:19:11.164Z,15.00
2022-08-07T07:22:04.908Z,15.00
2022-08-07T07:24:42.866Z,15.10
2022-08-07T07:27:19.091Z,15.20
2022-08-07T07:30:09.378Z,15.30
2022-08-07T07:32:40.551Z,15.30
2022-08-07T07:35:12.400Z,15.40
2022-08-07T07:37:49.482Z,15.40
2022-08-07T07:40:26.160Z,15.50
2022-08-07T07:42:57.634Z,15.50
2022-08-07T07:46:40.021Z,15.60
2022-08-07T07:48:35.749Z,15.60
2022-08-07T07:51:07.560Z,15.70
2022-08-07T07:53:51.824Z,15.70
2022-08-07T07:56:29.996Z,15.70
2022-08-07T07:59:03.125Z,15.80
2022-08-07T08:02:03.776Z,15.80
2022-08-07T08:04:27.476Z,15.90
2022-08-07T08:06:55.895Z,15.90
2022-08-07T08:09:29.120Z,15.90
2022-08-07T08:12:02.558Z,16.00
2022-08-07T08:14:36.068Z,16.00
2022-08-07T08:17:56.011Z,16.10
2022-08-07T08:20:18.574Z,16.10
2022-08-07T08:23:08.489Z,16.20
2022-08-07T08:25:58.135Z,16.20
2022-08-07T08:28:37.901Z,16.30
2022-08-07T08:31:13.834Z,16.40
2022-08-07T08:33:49.590Z,16.40
2022-08-07T08:36:29.818Z,16.40
2022-08-07T08:39:01.676Z,16.40
2022-08-07T08:41:57.733Z,16.50
2022-08-07T08:45:00.549Z,16.60
2022-08-07T08:48:02.331Z,16.60
2022-08-07T08:50:39.614Z,16.60
2022-08-07T08:53:22.563Z,16.70
2022-08-07T08:56:04.459Z,16.70
2022-08-07T08:59:16.370Z,16.80
2022-08-07T09:02:08.856Z,16.80
2022-08-07T09:04:39.025Z,16.80
2022-08-07T09:07:11.488Z,16.90
2022-08-07T09:09:56.985Z,16.90
2022-08-07T09:12:40.452Z,17.00
2022-08-07T09:16:25.455Z,17.00
2022-08-07T09:18:29.157Z,17.10
2022-08-07T09:22:10.139Z,17.10
2022-08-07T09:24:55.487Z,17.20
2022-08-07T09:28:00.807Z,17.20
2022-08-07T09:31:03.014Z,17.30
2022-08-07T09:33:52.971Z,17.30
2022-08-07T09:36:42.937Z,17.40
2022-08-07T09:39:55.488Z,17.50
2022-08-07T09:42:33.550Z,17.50
2022-08-07T09:47:49.518Z,17.60
2022-08-07T09:48:14.384Z,17.70
2022-08-07T09:51:01.320Z,17.70
2022-08-07T09:53:41.310Z,17.80
2022-08-07T09:56:37.387Z,17.80
2022-08-07T09:59:21.683Z,17.90
2022-08-07T10:02:07.385Z,18.00
2022-08-07T10:04:47.775Z,18.10
2022-08-07T10:07:52.611Z,18.10
2022-08-07T10:10:28.484Z,18.20
2022-08-07T10:14:00.810Z,18.20
2022-08-07T10:16:36.291Z,18.20
2022-08-07T10:19:03.610Z,18.30
2022-08-07T10:22:11.994Z,18.30
2022-08-07T10:24:46.335Z,18.40
2022-08-07T10:27:18.104Z,18.50
2022-08-07T10:30:06.389Z,18.60
2022-08-07T10:33:08.350Z,18.70
2022-08-07T10:36:05.139Z,18.70
2022-08-07T10:38:48.770Z,18.70
2022-08-07T10:41:46.508Z,18.70
2022-08-07T10:44:39.087Z,18.80
2022-08-07T10:47:27.199Z,18.80
2022-08-07T10:50:25.974Z,18.80
2022-08-07T10:53:08.177Z,18.80
2022-08-07T10:55:50.515Z,18.80
2022-08-07T10:58:59.940Z,18.90
2022-08-07T11:01:51.730Z,19.00
2022-08-07T11:04:57.627Z,19.00
2022-08-07T11:07:59.150Z,19.00
2022-08-07T11:10:59.817Z,19.10
2022-08-07T11:14:45.763Z,19.10
2022-08-07T11:16:50.780Z,19.10
2022-08-07T11:19:27.378Z,19.10
2022-08-07T11:22:31.628Z,19.20
2022-08-07T11:25:36.281Z,19.30
2022-08-07T11:28:31.252Z,19.40
2022-08-07T11:31:12.785Z,19.40
2022-08-07T11:33:58.427Z,19.50
2022-08-07T11:36:36.974Z,19.50
2022-08-07T11:39:14.538Z,19.70
2022-08-07T11:42:02.439Z,19.70
2022-08-07T11:44:52.478Z,19.70
2022-08-07T11:47:26.167Z,19.70
2022-08-07T11:50:32.603Z,19.70
2022-08-07T11:53:21.771Z,19.80
2022-08-07T11:56:15.517Z,19.90
2022-08-07T12:00:08.207Z,19.90
2022-08-07T12:02:32.685Z,19.90
2022-08-07T12:05:28.753Z,19.90
2022-08-07T12:08:31.895Z,19.90
2022-08-07T12:11:21.441Z,19.90
2022-08-07T12:14:05.494Z,19.90
2022-08-07T12:16:36.782Z,20.00
2022-08-07T12:19:26.159Z,19.90
2022-08-07T12:22:38.984Z,19.90
2022-08-07T12:26:22.057Z,19.90
2022-08-07T12:28:36.962Z,19.90
2022-08-07T12:31:11.429Z,20.00
2022-08-07T12:33:56.656Z,20.10
2022-08-07T12:36:32.756Z,20.10
2022-08-07T12:39:09.369Z,20.20
2022-08-07T12:41:56.053Z,20.20
2022-08-07T12:44:25.928Z,20.20
2022-08-07T12:46:58.699Z,20.20
2022-08-07T12:49:53.302Z,20.30
2022-08-07T12:52:36.452Z,20.30
2022-08-07T12:55:22.292Z,20.30
2022-08-07T12:58:10.144Z,20.30
2022-08-07T13:01:10.465Z,20.30
2022-08-07T13:04:03.023Z,20.30
2022-08-07T13:07:00.682Z,20.20
2022-08-07T13:10:28.516Z,20.20
2022-08-07T13:12:49.477Z,20.30
2022-08-07T13:15:31.998Z,20.30
2022-08-07T13:18:07.371Z,20.40
2022-08-07T13:20:44.620Z,20.40
2022-08-07T13:24:01.409Z,20.30
2022-08-07T13:26:26.559Z,20.30
2022-08-07T13:29:09.378Z,20.30
2022-08-07T13:31:46.268Z,20.30
2022-08-07T13:34:37.928Z,20.30
2022-08-07T13:37:19.972Z,20.30
2022-08-07T13:40:35.761Z,20.40
2022-08-07T13:43:12.923Z,20.40
2022-08-07T13:46:12.000Z,20.40
2022-08-07T13:48:38.645Z,20.50
2022-08-07T13:51:26.804Z,20.40
2022-08-07T13:54:03.665Z,20.40
2022-08-07T13:56:35.582Z,20.40
2022-08-07T13:59:32.043Z,20.50
2022-08-07T14:02:10.655Z,20.50
2022-08-07T14:04:54.869Z,20.60
2022-08-07T14:07:31.136Z,20.50
2022-08-07T14:10:20.432Z,20.50
2022-08-07T14:12:58.652Z,20.50
2022-08-07T14:15:41.881Z,20.50
2022-08-07T14:18:28.463Z,20.50
2022-08-07T14:22:02.969Z,20.50
2022-08-07T14:24:48.468Z,20.50
2022-08-07T14:28:10.401Z,20.50
2022-08-07T14:30:32.977Z,20.50
2022-08-07T14:33:04.353Z,20.50
2022-08-07T14:35:44.760Z,20.50
2022-08-07T14:38:30.254Z,20.60
2022-08-07T14:41:05.840Z,20.50
2022-08-07T14:43:58.429Z,20.60
2022-08-07T14:46:32.403Z,20.60
2022-08-07T14:49:17.407Z,20.60
2022-08-07T14:54:43.400Z,20.70
2022-08-07T14:57:15.080Z,20.60
2022-08-07T15:00:03.711Z,20.60
2022-08-07T15:02:35.134Z,20.60
2022-08-07T15:05:20.118Z,20.60
2022-08-07T15:07:52.072Z,20.70
2022-08-07T15:10:26.295Z,20.70
2022-08-07T15:13:16.902Z,20.70
2022-08-07T15:18:41.742Z,20.80
2022-08-07T15:25:15.980Z,20.90
2022-08-07T15:27:23.347Z,21.00
2022-08-07T15:30:10.333Z,21.00
2022-08-07T15:32:51.133Z,21.10
2022-08-07T15:36:00.651Z,21.00
2022-08-07T15:38:31.100Z,21.00
2022-08-07T15:42:43.838Z,21.00
2022-08-07T15:44:15.076Z,21.00
2022-08-07T15:46:52.059Z,21.00
2022-08-07T15:50:03.922Z,21.00
2022-08-07T15:52:17.206Z,21.00
2022-08-07T15:54:50.838Z,21.00
2022-08-07T15:57:39.616Z,21.00
2022-08-07T16:00:31.848Z,21.00
2022-08-07T16:03:05.535Z,21.00
2022-08-07T16:05:36.548Z,21.00
2022-08-07T16:08:33.455Z,21.00
2022-08-07T16:11:26.528Z,21.00
2022-08-07T16:14:06.963Z,21.00
2022-08-07T16:16:57.151Z,21.00
2022-08-07T16:20:34.453Z,21.00
2022-08-07T16:23:09.683Z,21.10
2022-08-07T16:26:05.013Z,21.10
2022-08-07T16:30:08.642Z,21.10
2022-08-07T16:32:34.630Z,21.10
2022-08-07T16:35:50.739Z,21.00
2022-08-07T16:38:15.207Z,21.00
2022-08-07T16:41:20.744Z,21.00
2022-08-07T16:44:03.760Z,21.00
2022-08-07T16:47:15.882Z,21.00
2022-08-07T16:50:35.491Z,21.00
2022-08-07T16:53:48.061Z,20.90
2022-08-07T16:56:08.975Z,20.90
2022-08-07T16:59:11.408Z,20.90
2022-08-07T17:02:12.494Z,20.90
2022-08-07T17:05:05.135Z,20.90
2022-08-07T17:07:55.161Z,20.90
2022-08-07T17:10:33.792Z,20.80
2022-08-07T17:13:16.460Z,20.80
2022-08-07T17:16:19.389Z,20.80
2022-08-07T17:18:59.876Z,20.70
2022-08-07T17:21:51.175Z,20.70
2022-08-07T17:24:33.413Z,20.70
2022-08-07T17:27:10.615Z,20.70
2022-08-07T17:30:13.969Z,20.70
2022-08-07T17:33:05.551Z,20.70
2022-08-07T17:36:32.912Z,20.60
2022-08-07T17:39:57.710Z,20.60
2022-08-07T17:42:36.167Z,20.60
2022-08-07T17:45:38.718Z,20.60
2022-08-07T17:48:12.899Z,20.60
2022-08-07T17:50:47.163Z,20.60
2022-08-07T17:54:00.628Z,20.50
2022-08-07T17:57:56.242Z,20.40
2022-08-07T18:00:33.426Z,20.40
2022-08-07T18:03:17.929Z,20.40
2022-08-07T18:06:02.691Z,20.40
2022-08-07T18:08:54.277Z,20.30
2022-08-07T18:12:07.902Z,20.30
2022-08-07T18:14:46.458Z,20.30
2022-08-07T18:18:46.422Z,20.30
2022-08-07T18:21:07.325Z,20.20
2022-08-07T18:23:43.384Z,20.20
2022-08-07T18:26:15.217Z,20.20
2022-08-07T18:30:04.524Z,20.20
2022-08-07T18:32:21.220Z,20.10
2022-08-07T18:35:15.768Z,20.10
2022-08-07T18:38:56.459Z,20.10
2022-08-07T18:41:22.053Z,20.00
2022-08-07T18:44:00.302Z,20.00
2022-08-07T18:46:47.680Z,19.90
2022-08-07T18:50:31.038Z,19.90
2022-08-07T18:52:56.529Z,19.90
2022-08-07T18:56:02.364Z,19.80
2022-08-07T18:58:52.069Z,19.70
2022-08-07T19:02:19.256Z,19.70
2022-08-07T19:04:57.727Z,19.60
2022-08-07T19:07:34.511Z,19.60
2022-08-07T19:10:21.252Z,19.50
2022-08-07T19:13:10.118Z,19.50
2022-08-07T19:16:04.612Z,19.40
2022-08-07T19:19:15.770Z,19.40
2022-08-07T19:21:56.168Z,19.30
2022-08-07T19:24:50.150Z,19.20
2022-08-07T19:29:02.782Z,19.00
2022-08-07T19:31:01.923Z,19.00
2022-08-07T19:33:10.080Z,18.90
2022-08-07T19:35:42.214Z,18.80
2022-08-07T19:38:17.159Z,18.70
2022-08-07T19:40:49.923Z,18.60
2022-08-07T19:43:43.943Z,18.50
2022-08-07T19:46:26.302Z,18.50
2022-08-07T19:49:05.324Z,18.40
2022-08-07T19:51:51.780Z,18.30
2022-08-07T19:54:34.870Z,18.20
2022-08-07T19:58:01.975Z,18.20
2022-08-07T20:00:10.432Z,18.10
2022-08-07T20:02:40.129Z,18.00
2022-08-07T20:05:47.507Z,17.90
2022-08-07T20:08:30.138Z,17.80
2022-08-07T20:11:12.131Z,17.70
2022-08-07T20:13:53.872Z,17.60
2022-08-07T20:16:35.231Z,17.60
2022-08-07T20:19:06.186Z,17.50
2022-08-07T20:21:47.228Z,17.40
2022-08-07T20:24:28.766Z,17.40
2022-08-07T20:27:02.558Z,17.40
2022-08-07T20:29:49.465Z,17.30
2022-08-07T20:32:40.205Z,17.30
2022-08-07T20:35:26.564Z,17.20
2022-08-07T20:37:59.778Z,17.20
2022-08-07T20:40:31.220Z,17.20
2022-08-07T20:43:03.719Z,17.20
2022-08-07T20:46:28.292Z,17.10
2022-08-07T20:48:33.890Z,17.10
2022-08-07T20:51:09.721Z,17.00
2022-08-07T20:54:04.851Z,16.90
2022-08-07T20:56:30.653Z,16.80
2022-08-07T20:59:05.070Z,16.70
2022-08-07T21:01:36.402Z,16.70
2022-08-07T21:04:22.720Z,16.70
2022-08-07T21:06:55.162Z,16.60
2022-08-07T21:09:35.419Z,16.50
2022-08-07T21:12:26.038Z,16.50
2022-08-07T21:15:00.912Z,16.50
2022-08-07T21:18:17.259Z,16.40
2022-08-07T21:20:30.342Z,16.40
2022-08-07T21:23:08.560Z,16.30
2022-08-07T21:26:03.249Z,16.30
2022-08-07T21:29:18.212Z,16.30
2022-08-07T21:32:41.841Z,16.30
2022-08-07T21:34:57.004Z,16.20
2022-08-07T21:38:06.782Z,16.10
2022-08-07T21:40:59.159Z,16.00
2022-08-07T21:43:55.779Z,16.00
2022-08-07T21:46:57.757Z,16.00
2022-08-07T21:50:02.558Z,16.00
2022-08-07T21:52:47.949Z,16.00
2022-08-07T21:55:19.404Z,16.00
2022-08-07T21:58:22.141Z,16.00
2022-08-07T22:01:16.044Z,15.90
2022-08-07T22:04:02.687Z,15.90
2022-08-07T22:06:44.950Z,15.80
2022-08-07T22:09:28.109Z,15.80
2022-08-07T22:12:17.847Z,15.70
2022-08-07T22:14:59.401Z,15.70
2022-08-07T22:17:36.739Z,15.70
2022-08-07T22:20:25.372Z,15.70
2022-08-07T22:23:24.406Z,15.60
2022-08-07T22:26:34.939Z,15.60
2022-08-07T22:29:03.758Z,15.40
2022-08-07T22:32:00.203Z,15.40
2022-08-07T22:34:53.502Z,15.30
2022-08-07T22:38:03.487Z,15.30
2022-08-07T22:40:32.474Z,15.20
2022-08-07T22:43:33.862Z,15.20
2022-08-07T22:47:02.993Z,15.20
2022-08-07T22:49:54.842Z,15.10
2022-08-07T22:52:36.882Z,15.10
2022-08-07T22:55:22.812Z,15.10
2022-08-07T22:58:40.664Z,15.20
2022-08-07T23:01:49.995Z,15.10
2022-08-07T23:04:30.817Z,15.10
2022-08-07T23:07:42.267Z,15.00
2022-08-07T23:10:38.182Z,14.90
2022-08-07T23:13:49.104Z,14.90
2022-08-07T23:16:54.775Z,14.90
2022-08-07T23:20:09.579Z,14.90
2022-08-07T23:22:55.833Z,14.80
2022-08-07T23:25:42.105Z,14.80
2022-08-07T23:28:22.856Z,14.70
2022-08-07T23:31:42.899Z,14.60
2022-08-07T23:34:37.302Z,14.60
2022-08-07T23:37:35.056Z,14.60
2022-08-07T23:40:26.967Z,14.60
2022-08-07T23:43:21.335Z,14.60
2022-08-07T23:46:27.327Z,14.50
2022-08-07T23:49:03.429Z,14.50
2022-08-07T23:52:58.692Z,14.50
2022-08-07T23:55:04.717Z,14.50
2022-08-07T23:57:41.678Z,14.40
